Time,TemperatureF,DewpointF,PressureIn,WindDirection,WindDirectionDegrees,WindSpeedMPH,WindSpeedGustMPH,Humidity,HourlyPrecipIn,Conditions,Clouds,dailyrainin,SoftwareType,DateUTC
2013-03-03 00:02:00,32.0,18.0,29.91,WSW,252,2.0,12.0,55,0.00,,,0.00,,2013-03-03 05:02:00,
2013-03-03 00:12:00,32.0,18.0,29.91,WSW,252,2.0,12.0,55,0.00,,,0.00,,2013-03-03 05:12:00,
2013-03-03 00:22:00,32.0,18.0,29.91,ENE,63,4.0,10.0,56,0.00,,,0.00,,2013-03-03 05:22:00,
2013-03-03 00:32:00,32.0,19.0,29.91,NE,54,2.0,9.0,58,0.00,,,0.00,,2013-03-03 05:32:00,
2013-03-03 00:42:00,32.0,19.0,29.91,NE,54,2.0,9.0,58,0.00,,,0.00,,2013-03-03 05:42:00,
2013-03-03 00:52:00,32.0,19.0,29.91,West,268,6.0,11.0,58,0.00,,,0.00,,2013-03-03 05:52:00,
2013-03-03 01:02:00,32.0,19.0,29.90,SSW,209,1.0,9.0,59,0.00,,,0.00,,2013-03-03 06:02:00,
2013-03-03 01:11:00,32.0,19.0,29.90,SSW,209,1.0,9.0,59,0.00,,,0.00,,2013-03-03 06:11:00,
2013-03-03 01:21:00,31.0,18.0,29.90,NW,312,3.0,13.0,58,0.00,,,0.00,,2013-03-03 06:21:00,
2013-03-03 01:32:00,31.0,18.0,29.90,WNW,286,3.0,6.0,58,0.00,,,0.00,,2013-03-03 06:32:00,
2013-03-03 01:42:00,31.0,18.0,29.90,WNW,286,3.0,6.0,58,0.00,,,0.00,,2013-03-03 06:42:00,
2013-03-03 01:52:00,31.0,17.0,29.91,WSW,242,4.0,11.0,56,0.00,,,0.00,,2013-03-03 06:52:00,
2013-03-03 02:01:00,31.0,17.0,29.91,NE,36,3.0,11.0,56,0.00,,,0.00,,2013-03-03 07:01:00,
2013-03-03 02:11:00,31.0,17.0,29.91,NE,36,3.0,11.0,56,0.00,,,0.00,,2013-03-03 07:11:00,
2013-03-03 02:21:00,31.0,18.0,29.91,West,268,4.0,12.0,57,0.00,,,0.00,,2013-03-03 07:21:00,
2013-03-03 02:32:00,31.0,18.0,29.90,WSW,255,5.0,10.0,57,0.00,,,0.00,,2013-03-03 07:32:00,
2013-03-03 02:42:00,31.0,18.0,29.90,WSW,255,5.0,10.0,57,0.00,,,0.00,,2013-03-03 07:42:00,
2013-03-03 02:52:00,30.0,17.0,29.89,North,355,3.0,11.0,57,0.00,,,0.00,,2013-03-03 07:52:00,
2013-03-03 03:01:00,30.0,17.0,29.89,NW,308,4.0,10.0,58,0.00,,,0.00,,2013-03-03 08:01:00,
2013-03-03 03:11:00,30.0,17.0,29.89,NW,308,4.0,10.0,58,0.00,,,0.00,,2013-03-03 08:11:00,
2013-03-03 03:21:00,30.0,17.0,29.89,WNW,298,2.0,10.0,58,0.00,,,0.00,,2013-03-03 08:21:00,
2013-03-03 03:31:00,30.0,17.0,29.88,WNW,294,3.0,10.0,59,0.00,,,0.00,,2013-03-03 08:31:00,
2013-03-03 03:42:00,30.0,17.0,29.88,WNW,294,3.0,10.0,59,0.00,,,0.00,,2013-03-03 08:42:00,
2013-03-03 03:54:00,30.0,17.0,29.88,West,277,4.0,8.0,59,0.00,,,0.00,,2013-03-03 08:54:00,
2013-03-03 04:01:00,29.0,16.0,29.89,NW,319,1.0,6.0,59,0.00,,,0.00,,2013-03-03 09:01:00,
2013-03-03 04:12:00,29.0,16.0,29.89,NW,319,1.0,6.0,59,0.00,,,0.00,,2013-03-03 09:12:00,
2013-03-03 04:21:00,29.0,16.0,29.88,WNW,302,2.0,5.0,59,0.00,,,0.00,,2013-03-03 09:21:00,
2013-03-03 04:32:00,29.0,16.0,29.89,WNW,287,3.0,7.0,58,0.00,,,0.00,,2013-03-03 09:32:00,
2013-03-03 04:42:00,29.0,16.0,29.89,WNW,287,3.0,7.0,58,0.00,,,0.00,,2013-03-03 09:42:00,
2013-03-03 04:52:00,29.0,16.0,29.89,North,360,3.0,6.0,57,0.00,,,0.00,,2013-03-03 09:52:00,
2013-03-03 05:01:00,29.0,16.0,29.89,NW,314,3.0,8.0,57,0.00,,,0.00,,2013-03-03 10:01:00,
2013-03-03 05:11:00,29.0,16.0,29.89,NW,314,3.0,8.0,57,0.00,,,0.00,,2013-03-03 10:11:00,
2013-03-03 05:21:00,29.0,16.0,29.89,NW,306,4.0,8.0,58,0.00,,,0.00,,2013-03-03 10:21:00,
2013-03-03 05:32:00,29.0,16.0,29.89,NNW,329,5.0,11.0,59,0.00,,,0.00,,2013-03-03 10:32:00,
2013-03-03 05:42:00,29.0,16.0,29.89,NNW,329,5.0,11.0,59,0.00,,,0.00,,2013-03-03 10:42:00,
2013-03-03 05:52:00,29.0,16.0,29.90,NNE,13,3.0,7.0,58,0.00,,,0.00,,2013-03-03 10:52:00,
2013-03-03 06:01:00,29.0,15.0,29.89,North,5,4.0,17.0,55,0.00,,,0.00,,2013-03-03 11:01:00,
2013-03-03 06:11:00,29.0,15.0,29.89,North,5,4.0,17.0,55,0.00,,,0.00,,2013-03-03 11:11:00,
2013-03-03 06:22:00,29.0,15.0,29.90,NW,305,4.0,10.0,55,0.00,,,0.00,,2013-03-03 11:22:00,
2013-03-03 06:32:00,29.0,15.0,29.90,ENE,68,3.0,8.0,55,0.00,,,0.00,,2013-03-03 11:32:00,
2013-03-03 06:42:00,29.0,15.0,29.90,ENE,68,3.0,8.0,55,0.00,,,0.00,,2013-03-03 11:42:00,
2013-03-03 06:53:00,29.0,16.0,29.91,West,278,5.0,9.0,57,0.00,,,0.00,,2013-03-03 11:53:00,
2013-03-03 07:02:00,29.0,16.0,29.91,NE,36,2.0,6.0,58,0.00,,,0.00,,2013-03-03 12:02:00,
2013-03-03 07:11:00,29.0,16.0,29.91,NE,36,2.0,6.0,58,0.00,,,0.00,,2013-03-03 12:11:00,
2013-03-03 07:21:00,29.0,16.0,29.91,WNW,292,2.0,9.0,58,0.00,,,0.00,,2013-03-03 12:21:00,
2013-03-03 07:32:00,29.0,16.0,29.92,North,9,2.0,10.0,57,0.00,,,0.00,,2013-03-03 12:32:00,
2013-03-03 07:43:00,29.0,16.0,29.92,North,9,2.0,10.0,57,0.00,,,0.00,,2013-03-03 12:43:00,
2013-03-03 07:53:00,29.0,15.0,29.93,NW,320,3.0,9.0,56,0.00,,,0.00,,2013-03-03 12:53:00,
2013-03-03 08:01:00,30.0,16.0,29.93,East,88,4.0,14.0,55,0.00,,,0.00,,2013-03-03 13:01:00,
2013-03-03 08:11:00,30.0,16.0,29.93,East,88,4.0,14.0,55,0.00,,,0.00,,2013-03-03 13:11:00,
2013-03-03 08:22:00,30.0,15.0,29.93,West,269,5.0,13.0,54,0.00,,,0.00,,2013-03-03 13:22:00,
2013-03-03 08:32:00,31.0,16.0,29.93,NW,310,3.0,13.0,53,0.00,,,0.00,,2013-03-03 13:32:00,
2013-03-03 08:42:00,31.0,16.0,29.93,NW,310,3.0,13.0,53,0.00,,,0.00,,2013-03-03 13:42:00,
2013-03-03 08:52:00,32.0,16.0,29.94,WNW,302,5.0,15.0,51,0.00,,,0.00,,2013-03-03 13:52:00,
2013-03-03 09:02:00,33.0,16.0,29.94,SSW,213,5.0,14.0,50,0.00,,,0.00,,2013-03-03 14:02:00,
2013-03-03 09:11:00,33.0,16.0,29.94,SSW,213,5.0,14.0,50,0.00,,,0.00,,2013-03-03 14:11:00,
2013-03-03 09:22:00,32.0,17.0,29.94,WNW,287,4.0,9.0,53,0.00,,,0.00,,2013-03-03 14:22:00,
2013-03-03 09:32:00,34.0,18.0,29.94,NNW,331,5.0,11.0,51,0.00,,,0.00,,2013-03-03 14:32:00,
2013-03-03 09:42:00,34.0,18.0,29.94,NNW,331,5.0,11.0,51,0.00,,,0.00,,2013-03-03 14:42:00,
2013-03-03 09:52:00,33.0,18.0,29.94,West,260,6.0,14.0,54,0.00,,,0.00,,2013-03-03 14:52:00,
2013-03-03 10:02:00,32.0,16.0,29.94,WNW,300,5.0,12.0,51,0.00,,,0.00,,2013-03-03 15:02:00,
2013-03-03 10:11:00,32.0,16.0,29.94,WNW,300,5.0,12.0,51,0.00,,,0.00,,2013-03-03 15:11:00,
2013-03-03 10:22:00,33.0,17.0,29.94,West,269,5.0,14.0,51,0.00,,,0.00,,2013-03-03 15:22:00,
2013-03-03 10:32:00,33.0,17.0,29.94,NW,317,4.0,13.0,52,0.00,,,0.00,,2013-03-03 15:32:00,
2013-03-03 10:42:00,33.0,17.0,29.94,NW,317,4.0,13.0,52,0.00,,,0.00,,2013-03-03 15:42:00,
2013-03-03 10:52:00,36.0,18.0,29.93,West,267,4.0,11.0,47,0.00,,,0.00,,2013-03-03 15:52:00,
2013-03-03 11:02:00,36.0,18.0,29.93,NE,45,5.0,13.0,47,0.00,,,0.00,,2013-03-03 16:02:00,
2013-03-03 11:12:00,36.0,18.0,29.93,NE,45,5.0,13.0,47,0.00,,,0.00,,2013-03-03 16:12:00,
2013-03-03 11:22:00,36.0,17.0,29.93,West,269,8.0,13.0,46,0.00,,,0.00,,2013-03-03 16:22:00,
2013-03-03 11:32:00,34.0,17.0,29.93,ESE,111,5.0,13.0,50,0.00,,,0.00,,2013-03-03 16:32:00,
2013-03-03 11:42:00,34.0,17.0,29.93,ESE,111,5.0,13.0,50,0.00,,,0.00,,2013-03-03 16:42:00,
2013-03-03 11:52:00,35.0,17.0,29.93,WSW,256,7.0,14.0,48,0.00,,,0.00,,2013-03-03 16:52:00,
2013-03-03 12:01:00,35.0,17.0,29.93,WSW,257,5.0,14.0,47,0.00,,,0.00,,2013-03-03 17:01:00,
2013-03-03 12:11:00,38.0,16.0,29.93,ENE,69,4.0,12.0,41,0.00,,,0.00,,2013-03-03 17:11:00,
2013-03-03 12:22:00,38.0,16.0,29.93,ENE,69,4.0,12.0,41,0.00,,,0.00,,2013-03-03 17:22:00,
2013-03-03 12:32:00,35.0,16.0,29.92,NE,44,5.0,22.0,45,0.00,,,0.00,,2013-03-03 17:32:00,
2013-03-03 12:42:00,35.0,16.0,29.92,NE,44,5.0,22.0,45,0.00,,,0.00,,2013-03-03 17:42:00,
2013-03-03 12:52:00,37.0,18.0,29.92,East,97,2.0,14.0,45,0.00,,,0.00,,2013-03-03 17:52:00,
2013-03-03 13:02:00,38.0,16.0,29.92,West,263,7.0,14.0,41,0.00,,,0.00,,2013-03-03 18:02:00,
2013-03-03 13:11:00,38.0,16.0,29.92,West,263,7.0,14.0,41,0.00,,,0.00,,2013-03-03 18:11:00,
2013-03-03 13:22:00,35.0,17.0,29.91,NW,322,6.0,19.0,47,0.00,,,0.00,,2013-03-03 18:22:00,
2013-03-03 13:32:00,34.0,16.0,29.91,North,360,4.0,16.0,48,0.00,,,0.00,,2013-03-03 18:32:00,
2013-03-03 13:42:00,34.0,16.0,29.91,North,360,4.0,16.0,48,0.00,,,0.00,,2013-03-03 18:42:00,
2013-03-03 13:52:00,35.0,17.0,29.91,West,269,5.0,16.0,48,0.00,,,0.00,,2013-03-03 18:52:00,
2013-03-03 14:02:00,35.0,17.0,29.90,West,264,5.0,12.0,47,0.00,,,0.00,,2013-03-03 19:02:00,
2013-03-03 14:11:00,35.0,17.0,29.90,West,264,5.0,12.0,47,0.00,,,0.00,,2013-03-03 19:11:00,
2013-03-03 14:22:00,35.0,17.0,29.91,West,259,4.0,15.0,48,0.00,,,0.00,,2013-03-03 19:22:00,
2013-03-03 14:32:00,35.0,17.0,29.91,WSW,254,5.0,13.0,48,0.00,,,0.00,,2013-03-03 19:32:00,
2013-03-03 14:42:00,35.0,17.0,29.91,WSW,254,5.0,13.0,48,0.00,,,0.00,,2013-03-03 19:42:00,
2013-03-03 14:52:00,35.0,17.0,29.90,West,277,7.0,21.0,47,0.00,,,0.00,,2013-03-03 19:52:00,
2013-03-03 15:01:00,34.0,16.0,29.90,WSW,254,8.0,15.0,48,0.00,,,0.00,,2013-03-03 20:01:00,
2013-03-03 15:11:00,34.0,16.0,29.90,WSW,254,8.0,15.0,48,0.00,,,0.00,,2013-03-03 20:11:00,
2013-03-03 15:22:00,34.0,17.0,29.91,WNW,283,8.0,16.0,49,0.00,,,0.00,,2013-03-03 20:22:00,
2013-03-03 15:32:00,34.0,17.0,29.91,South,169,5.0,19.0,49,0.00,,,0.00,,2013-03-03 20:32:00,
2013-03-03 15:42:00,34.0,17.0,29.91,South,169,5.0,19.0,49,0.00,,,0.00,,2013-03-03 20:42:00,
2013-03-03 15:53:00,34.0,17.0,29.91,ENE,64,3.0,13.0,49,0.00,,,0.00,,2013-03-03 20:53:00,
2013-03-03 16:02:00,34.0,17.0,29.91,NW,326,5.0,15.0,49,0.00,,,0.00,,2013-03-03 21:02:00,
2013-03-03 16:12:00,34.0,17.0,29.91,NW,326,5.0,15.0,49,0.00,,,0.00,,2013-03-03 21:12:00,
2013-03-03 16:22:00,33.0,16.0,29.91,WNW,296,6.0,16.0,49,0.00,,,0.00,,2013-03-03 21:22:00,
2013-03-03 16:32:00,34.0,17.0,29.91,SSE,159,4.0,13.0,49,0.00,,,0.00,,2013-03-03 21:32:00,
2013-03-03 16:42:00,34.0,17.0,29.91,SSE,159,4.0,13.0,49,0.00,,,0.00,,2013-03-03 21:42:00,
2013-03-03 16:52:00,33.0,16.0,29.92,West,267,6.0,19.0,50,0.00,,,0.00,,2013-03-03 21:52:00,
2013-03-03 17:02:00,33.0,17.0,29.92,East,98,4.0,15.0,51,0.00,,,0.00,,2013-03-03 22:02:00,
2013-03-03 17:11:00,33.0,17.0,29.92,East,98,4.0,15.0,51,0.00,,,0.00,,2013-03-03 22:11:00,
2013-03-03 17:22:00,33.0,17.0,29.92,ESE,114,5.0,12.0,51,0.00,,,0.00,,2013-03-03 22:22:00,
2013-03-03 17:32:00,32.0,15.0,29.92,SSW,194,3.0,14.0,49,0.00,,,0.00,,2013-03-03 22:32:00,
2013-03-03 17:42:00,32.0,15.0,29.92,SSW,194,3.0,14.0,49,0.00,,,0.00,,2013-03-03 22:42:00,
2013-03-03 17:52:00,32.0,15.0,29.92,SE,141,4.0,13.0,49,0.00,,,0.00,,2013-03-03 22:52:00,
2013-03-03 18:01:00,32.0,15.0,29.93,South,175,6.0,13.0,48,0.00,,,0.00,,2013-03-03 23:01:00,
2013-03-03 18:11:00,32.0,15.0,29.93,South,175,6.0,13.0,48,0.00,,,0.00,,2013-03-03 23:11:00,
2013-03-03 18:21:00,32.0,15.0,29.93,ENE,76,5.0,18.0,49,0.00,,,0.00,,2013-03-03 23:21:00,
2013-03-03 18:32:00,32.0,15.0,29.93,East,82,7.0,12.0,49,0.00,,,0.00,,2013-03-03 23:32:00,
2013-03-03 18:42:00,32.0,15.0,29.93,East,82,7.0,12.0,49,0.00,,,0.00,,2013-03-03 23:42:00,
2013-03-03 18:52:00,32.0,15.0,29.94,NW,322,5.0,13.0,49,0.00,,,0.00,,2013-03-03 23:52:00,
2013-03-03 19:02:00,31.0,14.0,29.94,NE,38,5.0,10.0,49,0.00,,,0.00,,2013-03-04 00:02:00,
2013-03-03 19:11:00,31.0,14.0,29.94,NE,38,5.0,10.0,49,0.00,,,0.00,,2013-03-04 00:11:00,
2013-03-03 19:22:00,31.0,14.0,29.94,WNW,288,5.0,11.0,49,0.00,,,0.00,,2013-03-04 00:22:00,
2013-03-03 19:32:00,31.0,14.0,29.95,North,5,5.0,11.0,49,0.00,,,0.00,,2013-03-04 00:32:00,
2013-03-03 19:42:00,31.0,14.0,29.95,North,5,5.0,11.0,49,0.00,,,0.00,,2013-03-04 00:42:00,
2013-03-03 19:52:00,31.0,14.0,29.95,SW,225,6.0,11.0,49,0.00,,,0.00,,2013-03-04 00:52:00,
2013-03-03 20:01:00,31.0,15.0,29.95,NNE,27,5.0,13.0,50,0.00,,,0.00,,2013-03-04 01:01:00,
2013-03-03 20:12:00,31.0,15.0,29.95,NNE,27,5.0,13.0,50,0.00,,,0.00,,2013-03-04 01:12:00,
2013-03-03 20:22:00,31.0,15.0,29.96,ENE,73,2.0,12.0,50,0.00,,,0.00,,2013-03-04 01:22:00,
2013-03-03 20:32:00,31.0,15.0,29.95,NNE,14,5.0,11.0,50,0.00,,,0.00,,2013-03-04 01:32:00,
2013-03-03 20:42:00,31.0,15.0,29.95,NNE,14,5.0,11.0,50,0.00,,,0.00,,2013-03-04 01:42:00,
2013-03-03 20:52:00,31.0,15.0,29.96,NW,320,3.0,12.0,50,0.00,,,0.00,,2013-03-04 01:52:00,
2013-03-03 21:01:00,31.0,15.0,29.96,WNW,301,6.0,13.0,51,0.00,,,0.00,,2013-03-04 02:01:00,
2013-03-03 21:11:00,31.0,15.0,29.96,WNW,301,6.0,13.0,51,0.00,,,0.00,,2013-03-04 02:11:00,
2013-03-03 21:22:00,31.0,15.0,29.96,ENE,77,8.0,20.0,51,0.00,,,0.00,,2013-03-04 02:22:00,
2013-03-03 21:32:00,31.0,15.0,29.98,WSW,244,6.0,15.0,51,0.00,,,0.00,,2013-03-04 02:32:00,
2013-03-03 21:42:00,31.0,15.0,29.98,WSW,244,6.0,15.0,51,0.00,,,0.00,,2013-03-04 02:42:00,
2013-03-03 21:53:00,30.0,14.0,29.98,West,273,7.0,17.0,50,0.00,,,0.00,,2013-03-04 02:53:00,
2013-03-03 22:02:00,30.0,13.0,29.98,North,355,6.0,12.0,49,0.00,,,0.00,,2013-03-04 03:02:00,
2013-03-03 22:11:00,30.0,13.0,29.98,North,355,6.0,12.0,49,0.00,,,0.00,,2013-03-04 03:11:00,
2013-03-03 22:22:00,30.0,13.0,29.98,WNW,292,4.0,10.0,49,0.00,,,0.00,,2013-03-04 03:22:00,
2013-03-03 22:32:00,29.0,12.0,29.99,WNW,292,2.0,12.0,48,0.00,,,0.00,,2013-03-04 03:32:00,
2013-03-03 22:42:00,29.0,12.0,29.98,NE,43,5.0,10.0,48,0.00,,,0.00,,2013-03-04 03:42:00,
2013-03-03 22:53:00,29.0,12.0,29.98,NE,43,5.0,10.0,48,0.00,,,0.00,,2013-03-04 03:53:00,
2013-03-03 23:01:00,29.0,11.0,29.98,NNW,346,5.0,11.0,47,0.00,,,0.00,,2013-03-04 04:01:00,
2013-03-03 23:11:00,29.0,11.0,29.98,NNW,346,5.0,11.0,47,0.00,,,0.00,,2013-03-04 04:11:00,
2013-03-03 23:22:00,29.0,12.0,29.98,ENE,58,3.0,7.0,48,0.00,,,0.00,,2013-03-04 04:22:00,
2013-03-03 23:32:00,29.0,12.0,29.98,NW,325,2.0,8.0,48,0.00,,,0.00,,2013-03-04 04:32:00,
2013-03-03 23:42:00,29.0,12.0,29.98,NW,325,2.0,8.0,48,0.00,,,0.00,,2013-03-04 04:42:00,
2013-03-03 23:52:00,29.0,12.0,29.98,NE,49,3.0,7.0,48,0.00,,,0.00,,2013-03-04 04:52:00,